Time;durP1;ratioP1;P1;durP2;ratioP2;P2;SDS_P1;SDS_P2;PMS_P1;PMS_P2;Temp;Humidity;BMP_temperature;BMP_pressure;BME280_temperature;BME280_humidity;BME280_pressure;Samples;Min_cycle;Max_cycle;Signal;HPM_P1;HPM_P2
2021/09/17 00:02:12;;;;;;;8.75;4.08;;;;;;;13.75;92.58;99096.81;1728350;80;20947;-72
2021/09/17 00:04:38;;;;;;;10.50;4.53;;;;;;;13.74;92.64;99099.09;1730187;80;21072;-72
2021/09/17 00:07:05;;;;;;;7.47;4.43;;;;;;;13.75;92.66;99095.50;1704523;82;20962;-72
2021/09/17 00:09:32;;;;;;;5.67;4.12;;;;;;;13.74;92.52;99095.15;1703806;82;20905;-72
2021/09/17 00:12:01;;;;;;;5.53;4.37;;;;;;;13.72;92.55;99090.47;1703510;82;20982;-72
2021/09/17 00:14:27;;;;;;;5.97;4.67;;;;;;;13.64;92.36;99089.24;1730730;80;20942;-72
2021/09/17 00:16:54;;;;;;;6.28;4.35;;;;;;;13.62;92.54;99088.50;1723675;80;20971;-72
2021/09/17 00:19:21;;;;;;;6.87;4.65;;;;;;;13.63;92.67;99091.48;1729188;80;20911;-72
2021/09/17 00:21:47;;;;;;;9.43;4.80;;;;;;;13.65;92.81;99088.28;1725401;80;20917;-72
2021/09/17 00:24:14;;;;;;;7.67;4.37;;;;;;;13.64;92.67;99090.55;1720102;80;20914;-72
2021/09/17 00:26:41;;;;;;;5.53;3.70;;;;;;;13.59;92.52;99088.72;1731848;80;20978;-72
2021/09/17 00:29:08;;;;;;;8.65;3.62;;;;;;;13.59;92.72;99080.85;1725533;80;21903;-73
2021/09/17 00:31:35;;;;;;;7.83;3.60;;;;;;;13.60;92.76;99085.14;1728280;80;21086;-73
2021/09/17 00:34:02;;;;;;;8.73;4.30;;;;;;;13.60;92.74;99077.27;1730634;80;21389;-72
2021/09/17 00:36:29;;;;;;;5.47;3.80;;;;;;;13.61;92.80;99071.09;1729562;81;20970;-72
2021/09/17 00:38:56;;;;;;;7.45;3.70;;;;;;;13.62;92.86;99073.24;1734362;80;20923;-73
2021/09/17 00:41:24;;;;;;;6.78;3.85;;;;;;;13.64;92.82;99068.26;1732826;80;21152;-72
2021/09/17 00:43:51;;;;;;;;;;;;;;;13.65;92.80;99071.23;1731330;82;21422;-72
2021/09/17 00:46:18;;;;;;;7.40;4.83;;;;;;;13.66;92.76;99066.34;1739410;79;20092;-72
2021/09/17 00:48:45;;;;;;;8.73;4.70;;;;;;;13.65;92.79;99067.30;1726774;79;20935;-72
2021/09/17 00:51:12;;;;;;;7.67;4.60;;;;;;;13.68;92.89;99068.04;1702665;82;21492;-72
2021/09/17 00:53:39;;;;;;;6.33;3.75;;;;;;;13.70;92.90;99075.34;1689697;83;21847;-73
2021/09/17 00:56:06;;;;;;;6.28;3.92;;;;;;;13.66;92.56;99072.07;1690645;82;20907;-72
2021/09/17 00:58:33;;;;;;;5.97;4.15;;;;;;;13.62;92.48;99070.14;1703921;82;26423;-73
2021/09/17 01:01:00;;;;;;;5.03;3.72;;;;;;;13.58;92.48;99067.38;1687007;83;20895;-73
2021/09/17 01:03:29;;;;;;;9.03;5.13;;;;;;;13.54;92.46;99069.84;1681952;83;21424;-73
2021/09/17 01:05:56;;;;;;;6.10;3.87;;;;;;;13.49;92.43;99069.31;1662641;84;23294;-72
2021/09/17 01:08:23;;;;;;;6.10;4.17;;;;;;;13.46;92.59;99060.35;1731861;80;21504;-72
2021/09/17 01:10:50;;;;;;;6.70;4.37;;;;;;;13.35;92.69;99040.59;1714917;80;20937;-72
2021/09/17 01:13:18;;;;;;;4.83;3.60;;;;;;;13.48;92.71;99059.78;1742774;80;20846;-72
2021/09/17 01:15:45;;;;;;;6.08;4.05;;;;;;;13.46;92.60;99056.42;1737141;80;20958;-72
2021/09/17 01:18:12;;;;;;;5.35;4.20;;;;;;;13.47;92.65;99052.00;1728102;80;21102;-72
2021/09/17 01:20:39;;;;;;;5.37;4.20;;;;;;;13.47;92.78;99051.56;1726637;81;20946;-72
2021/09/17 01:23:06;;;;;;;11.65;4.42;;;;;;;13.46;92.67;99053.80;1737733;80;20943;-72
2021/09/17 01:25:33;;;;;;;8.10;4.40;;;;;;;13.48;92.86;99046.67;1726917;80;21481;-72
2021/09/17 01:28:00;;;;;;;6.93;4.80;;;;;;;13.49;92.88;99045.71;1732286;80;20942;-72
2021/09/17 01:30:27;;;;;;;10.78;3.95;;;;;;;13.48;92.85;99046.67;1730140;80;21190;-72
2021/09/17 01:32:54;;;;;;;8.55;4.42;;;;;;;13.48;92.86;99041.42;1732130;80;20923;-72
2021/09/17 01:35:23;;;;;;;5.60;4.12;;;;;;;13.48;92.89;99041.42;1701577;82;20987;-72
2021/09/17 01:37:50;;;;;;;8.15;4.17;;;;;;;13.43;92.75;99041.73;1730149;80;21441;-72
2021/09/17 01:40:17;;;;;;;6.22;4.15;;;;;;;13.43;92.75;99041.73;1733079;80;21483;-72
2021/09/17 01:42:44;;;;;;;7.70;4.40;;;;;;;13.41;92.78;99040.16;1723933;81;24111;-72
2021/09/17 01:45:12;;;;;;;7.12;4.53;;;;;;;13.38;92.79;99043.83;1732717;80;20939;-72
2021/09/17 01:47:46;;;;;;;6.85;5.05;;;;;;;13.37;92.84;99036.09;1729482;80;20955;-72
2021/09/17 01:50:12;;;;;;;7.17;4.30;;;;;;;13.20;92.87;99023.64;1730195;80;20883;-72
2021/09/17 01:52:39;;;;;;;10.13;5.70;;;;;;;13.20;92.87;99023.64;1732877;80;21024;-72
2021/09/17 01:55:07;;;;;;;7.12;4.22;;;;;;;13.27;92.82;99033.73;1730336;80;21158;-72
2021/09/17 01:57:34;;;;;;;6.20;4.72;;;;;;;13.26;92.94;99030.75;1733401;80;20925;-72
2021/09/17 02:00:01;;;;;;;6.08;4.30;;;;;;;13.27;93.05;99029.80;1732513;80;20934;-72
2021/09/17 02:02:28;;;;;;;8.38;4.95;;;;;;;13.28;93.06;99024.46;1724132;80;20950;-72
2021/09/17 02:04:55;;;;;;;5.53;4.53;;;;;;;13.30;93.14;99024.34;1729815;80;20915;-72
2021/09/17 02:07:21;;;;;;;7.10;3.98;;;;;;;13.30;93.07;99021.72;1727765;80;21011;-72
2021/09/17 02:09:48;;;;;;;5.33;4.17;;;;;;;13.28;92.94;99021.01;1731554;80;20930;-72
2021/09/17 02:12:15;;;;;;;4.70;3.98;;;;;;;13.24;92.95;99020.80;1738698;80;20934;-72
2021/09/17 02:14:42;;;;;;;7.92;4.50;;;;;;;13.24;93.07;99009.84;1730767;81;22462;-72
2021/09/17 02:17:09;;;;;;;7.03;4.65;;;;;;;13.23;93.01;99011.28;1735636;80;21405;-72
2021/09/17 02:19:36;;;;;;;5.60;4.37;;;;;;;13.20;92.98;99011.84;1731962;80;21053;-73
2021/09/17 02:22:03;;;;;;;9.40;4.78;;;;;;;13.19;93.04;99007.56;1725894;80;20938;-73
2021/09/17 02:24:30;;;;;;;9.75;4.92;;;;;;;13.16;93.03;99006.47;1730253;81;20895;-73
2021/09/17 02:26:56;;;;;;;7.80;4.40;;;;;;;13.14;93.05;99001.80;1726523;80;20946;-73
2021/09/17 02:29:23;;;;;;;5.70;4.63;;;;;;;13.12;93.01;99003.67;1732795;80;21534;-73
2021/09/17 02:31:50;;;;;;;7.80;4.83;;;;;;;13.09;92.93;99002.58;1735574;80;21414;-73
2021/09/17 02:34:16;;;;;;;7.43;4.30;;;;;;;13.07;92.98;99002.31;1720309;81;22142;-72
2021/09/17 02:36:43;;;;;;;8.20;4.67;;;;;;;13.04;93.12;99003.36;1728742;81;20924;-72
2021/09/17 02:39:12;;;;;;;6.40;5.22;;;;;;;13.05;93.23;99001.13;1727038;79;20906;-72
2021/09/17 02:41:39;;;;;;;6.03;4.45;;;;;;;13.06;93.33;98998.86;1728981;80;20879;-73
2021/09/17 02:44:05;;;;;;;7.10;4.20;;;;;;;13.09;93.43;98995.19;1729634;80;21036;-73
2021/09/17 02:46:32;;;;;;;9.03;4.65;;;;;;;13.11;93.41;99002.01;1728212;80;20916;-73
2021/09/17 02:48:59;;;;;;;6.17;4.85;;;;;;;13.12;93.39;98995.81;1724959;81;20930;-73
2021/09/17 02:51:26;;;;;;;10.20;4.83;;;;;;;13.14;93.46;98991.31;1731152;80;20941;-72
2021/09/17 02:53:53;;;;;;;9.73;4.60;;;;;;;13.13;93.24;98990.92;1728834;80;20999;-72
2021/09/17 02:56:20;;;;;;;7.03;4.33;;;;;;;13.08;93.16;98989.13;1731319;80;21043;-73
2021/09/17 02:58:47;;;;;;;7.97;4.45;;;;;;;13.05;93.13;98989.33;1731648;80;20899;-73
2021/09/17 03:01:14;;;;;;;10.63;4.20;;;;;;;13.00;92.98;98986.19;1725843;80;20926;-72
2021/09/17 03:03:40;;;;;;;6.67;4.45;;;;;;;12.91;92.90;98985.48;1727412;80;21412;-72
2021/09/17 03:06:07;;;;;;;6.50;4.53;;;;;;;12.87;92.96;98991.89;1732169;80;21475;-72
2021/09/17 03:08:34;;;;;;;8.40;4.75;;;;;;;12.84;93.03;98982.94;1733657;80;21674;-72
2021/09/17 03:11:01;;;;;;;5.75;4.33;;;;;;;12.83;93.09;98983.89;1733818;80;20915;-72
2021/09/17 03:13:28;;;;;;;4.58;4.00;;;;;;;12.82;93.13;98986.13;1727540;80;20946;-72
2021/09/17 03:15:56;;;;;;;5.30;3.98;;;;;;;12.76;93.06;98984.28;1700429;83;20934;-72
2021/09/17 03:18:22;;;;;;;6.78;4.25;;;;;;;12.75;93.17;98985.23;1728851;81;20903;-73
2021/09/17 03:20:51;;;;;;;7.67;4.00;;;;;;;12.74;93.20;98986.19;1732342;81;21456;-72
2021/09/17 03:23:19;;;;;;;4.92;3.85;;;;;;;12.74;93.28;98987.95;1731122;80;21582;-72
2021/09/17 03:25:46;;;;;;;7.03;4.00;;;;;;;12.70;93.22;98982.09;1734204;80;20907;-72
2021/09/17 03:28:13;;;;;;;7.55;4.50;;;;;;;12.70;93.34;98982.09;1733111;80;20959;-72
2021/09/17 03:30:41;;;;;;;8.70;4.10;;;;;;;12.70;93.43;98986.02;1732640;80;20961;-72
2021/09/17 03:33:09;;;;;;;4.28;3.87;;;;;;;12.74;93.54;98980.95;1730886;80;21437;-72
2021/09/17 03:35:37;;;;;;;4.55;4.10;;;;;;;12.78;93.57;98978.13;1736718;80;20923;-73
2021/09/17 03:38:05;;;;;;;6.37;4.00;;;;;;;12.79;93.59;98977.16;1730228;80;20886;-72
2021/09/17 03:40:38;;;;;;;5.33;3.95;;;;;;;12.77;93.53;98972.02;1683840;83;20911;-72
2021/09/17 03:43:06;;;;;;;10.23;3.95;;;;;;;12.76;93.53;98967.26;1691999;82;21525;-72
2021/09/17 03:45:36;;;;;;;5.83;4.47;;;;;;;12.79;93.59;98970.62;1690854;83;21013;-72
2021/09/17 03:48:07;;;;;;;9.25;4.65;;;;;;;12.79;93.61;98964.06;1686196;83;21485;-72
2021/09/17 03:50:35;;;;;;;15.90;4.55;;;;;;;12.81;93.70;98958.27;1690880;83;20931;-72
2021/09/17 03:53:03;;;;;;;15.58;4.37;;;;;;;12.86;93.90;98964.03;1689597;83;21389;-72
2021/09/17 03:55:32;;;;;;;9.05;5.10;;;;;;;12.90;93.94;98959.77;1674430;83;20884;-73
2021/09/17 03:58:00;;;;;;;12.85;7.50;;;;;;;12.92;93.93;98959.67;1686334;83;21063;-73
2021/09/17 04:00:27;;;;;;;10.70;6.80;;;;;;;12.93;94.00;98960.03;1686264;82;20866;-72
2021/09/17 04:02:54;;;;;;;8.80;6.75;;;;;;;12.96;94.13;98961.12;1671869;83;21024;-73
2021/09/17 04:05:21;;;;;;;8.33;6.17;;;;;;;13.00;94.25;98959.98;1693147;82;20943;-72
2021/09/17 04:07:48;;;;;;;7.85;5.92;;;;;;;13.06;94.29;98962.17;1666847;83;20869;-70
2021/09/17 04:10:18;;;;;;;8.33;5.37;;;;;;;13.09;94.31;98955.88;1690529;83;21045;-70
2021/09/17 04:12:45;;;;;;;10.50;5.22;;;;;;;13.12;94.26;98957.80;1692750;82;20935;-71
2021/09/17 04:15:14;;;;;;;6.87;5.28;;;;;;;13.15;94.25;98956.28;1689010;83;21472;-72
2021/09/17 04:17:41;;;;;;;7.45;4.67;;;;;;;13.21;94.34;98953.22;1690534;83;20984;-71
2021/09/17 04:20:10;;;;;;;10.23;5.05;;;;;;;13.26;94.48;98952.11;1697170;81;21327;-71
2021/09/17 04:22:37;;;;;;;6.40;4.60;;;;;;;13.29;94.48;98946.64;1694909;82;22124;-70
2021/09/17 04:25:09;;;;;;;10.05;5.40;;;;;;;13.33;94.54;98944.16;1688848;82;20927;-71
2021/09/17 04:27:44;;;;;;;12.00;5.05;;;;;;;13.38;94.61;98935.50;1693683;82;20899;-72
2021/09/17 04:30:14;;;;;;;10.95;5.40;;;;;;;13.43;94.63;98941.25;1695512;83;20919;-71
2021/09/17 04:32:42;;;;;;;7.40;5.42;;;;;;;13.46;94.68;98939.72;1692120;83;20934;-70
2021/09/17 04:36:11;;;;;;;9.38;5.83;;;;;;;13.52;94.69;98951.08;1663702;84;21100;-63
2021/09/17 04:38:38;;;;;;;9.48;6.00;;;;;;;13.59;94.88;98947.08;1694927;83;20942;-62
2021/09/17 04:41:05;;;;;;;7.30;5.53;;;;;;;13.68;94.80;98949.98;1691761;82;20915;-62
2021/09/17 04:43:31;;;;;;;9.73;5.22;;;;;;;13.71;94.71;98949.77;1694300;83;22554;-62
2021/09/17 04:45:58;;;;;;;8.20;4.80;;;;;;;13.74;94.68;98945.61;1697148;83;20946;-63
2021/09/17 04:48:25;;;;;;;5.63;5.03;;;;;;;13.77;94.69;98949.31;1697370;82;21978;-62
2021/09/17 04:50:51;;;;;;;7.42;5.25;;;;;;;13.80;94.67;98946.47;1696135;83;21608;-62
2021/09/17 04:53:18;;;;;;;6.30;4.80;;;;;;;13.82;94.62;98947.20;1693248;83;20951;-62
2021/09/17 04:55:47;;;;;;;8.50;5.17;;;;;;;13.86;94.66;98946.01;1692379;82;20904;-63
2021/09/17 04:58:13;;;;;;;5.97;4.87;;;;;;;13.89;94.68;98949.72;1700069;82;21636;-62
2021/09/17 05:00:40;;;;;;;11.30;5.33;;;;;;;13.94;94.85;98951.53;1696269;82;21011;-62
2021/09/17 05:03:07;;;;;;;13.80;6.50;;;;;;;14.00;94.76;98943.23;1696211;83;20951;-63
2021/09/17 05:05:34;;;;;;;10.25;5.78;;;;;;;14.00;94.58;98948.48;1694868;83;20948;-62
2021/09/17 05:08:00;;;;;;;13.22;5.87;;;;;;;14.00;94.60;98951.11;1691586;82;20915;-63
2021/09/17 05:10:27;;;;;;;5.35;4.75;;;;;;;14.01;94.65;98956.72;1695889;83;20927;-63
2021/09/17 05:12:54;;;;;;;5.67;5.03;;;;;;;14.03;94.67;98956.13;1698438;82;21199;-63
2021/09/17 05:15:21;;;;;;;12.05;5.05;;;;;;;14.10;94.89;98950.77;1699043;82;20974;-63
2021/09/17 05:17:48;;;;;;;9.20;5.15;;;;;;;14.18;94.88;98952.01;1699055;83;20947;-63
2021/09/17 05:20:15;;;;;;;6.25;4.92;;;;;;;14.24;94.79;98944.98;1694889;83;20915;-63
2021/09/17 05:22:42;;;;;;;9.63;5.80;;;;;;;14.31;94.79;98952.75;1695478;84;20891;-63
2021/09/17 05:25:09;;;;;;;9.60;4.70;;;;;;;14.37;94.82;98952.77;1694890;83;22700;-63
2021/09/17 05:27:37;;;;;;;9.20;4.85;;;;;;;14.41;94.73;98952.91;1698189;84;20932;-62
2021/09/17 05:30:07;;;;;;;6.70;4.90;;;;;;;14.48;94.75;98954.10;1699167;82;20931;-63
2021/09/17 05:32:34;;;;;;;6.70;5.00;;;;;;;14.51;94.63;98950.80;1693230;82;21776;-63
2021/09/17 05:35:01;;;;;;;5.95;4.42;;;;;;;14.57;94.72;98951.31;1696460;82;20912;-62
2021/09/17 05:37:27;;;;;;;8.03;4.62;;;;;;;14.61;94.62;98951.43;1694292;83;21024;-63
2021/09/17 05:39:54;;;;;;;8.85;6.50;;;;;;;14.66;94.62;98951.92;1692762;83;21480;-63
2021/09/17 05:42:21;;;;;;;15.05;13.45;;;;;;;14.70;94.64;98948.95;1695859;82;21432;-63
2021/09/17 05:44:48;;;;;;;10.87;5.70;;;;;;;14.75;94.50;98949.89;1689517;83;20880;-63
2021/09/17 05:47:15;;;;;;;4.87;4.05;;;;;;;14.84;94.60;98949.66;1693412;82;21693;-62
2021/09/17 05:49:42;;;;;;;6.15;4.17;;;;;;;14.95;94.70;98946.55;1693028;83;21082;-63
2021/09/17 05:52:08;;;;;;;4.55;3.95;;;;;;;15.04;94.42;98954.69;1692689;83;20950;-63
2021/09/17 05:54:37;;;;;;;8.25;4.33;;;;;;;15.11;94.50;98946.20;1688825;82;20946;-63
2021/09/17 05:57:04;;;;;;;8.05;4.12;;;;;;;15.18;94.48;98950.52;1693707;82;21967;-63
2021/09/17 05:59:31;;;;;;;6.60;3.90;;;;;;;15.21;94.18;98951.59;1698703;82;20883;-63
2021/09/17 06:01:58;;;;;;;10.48;3.90;;;;;;;15.21;93.98;98950.28;1696240;82;21015;-63
2021/09/17 06:04:25;;;;;;;10.18;4.15;;;;;;;15.20;93.98;98947.27;1697156;82;21793;-62
2021/09/17 06:06:51;;;;;;;4.80;4.30;;;;;;;15.21;93.98;98951.59;1698340;83;21496;-63
2021/09/17 06:09:18;;;;;;;5.05;3.65;;;;;;;15.25;94.16;98945.12;1697508;82;21461;-63
2021/09/17 06:11:45;;;;;;;3.87;3.37;;;;;;;15.33;94.29;98949.30;1697432;83;21451;-63
2021/09/17 06:14:11;;;;;;;8.08;3.87;;;;;;;15.39;94.14;98944.03;1699719;82;21874;-63
2021/09/17 06:16:38;;;;;;;8.23;4.28;;;;;;;15.48;94.19;98941.14;1695560;82;20962;-62
2021/09/17 06:19:05;;;;;;;6.85;4.17;;;;;;;15.63;94.41;98938.62;1703681;82;20911;-63
2021/09/17 06:21:33;;;;;;;5.83;3.98;;;;;;;15.73;94.14;98936.92;1698757;82;20891;-63
2021/09/17 06:24:01;;;;;;;11.18;4.10;;;;;;;15.84;94.14;98938.20;1691703;82;21573;-63
2021/09/17 06:26:31;;;;;;;7.58;3.85;;;;;;;16.00;94.17;98939.59;1694516;83;21912;-63
2021/09/17 06:29:03;;;;;;;5.08;3.45;;;;;;;16.15;93.98;98933.05;1697130;83;21346;-63
2021/09/17 06:31:31;;;;;;;6.33;3.67;;;;;;;16.29;93.92;98932.73;1697522;82;21513;-63
2021/09/17 06:33:57;;;;;;;;;;;;;;;16.46;93.92;98929.18;1699051;82;20895;-64
2021/09/17 06:36:24;;;;;;;3.83;3.45;;;;;;;16.65;93.75;98933.73;1693614;83;20155;-62
2021/09/17 06:38:51;;;;;;;4.55;3.40;;;;;;;16.72;93.40;98925.19;1696431;82;21445;-63
2021/09/17 06:41:18;;;;;;;;;;;;;;;16.77;93.14;98930.91;1715719;81;20947;-62
2021/09/17 06:43:45;;;;;;;4.08;2.95;;;;;;;16.77;92.74;98932.71;1740742;80;20085;-62
2021/09/17 06:46:12;;;;;;;6.58;3.55;;;;;;;16.71;92.63;98931.40;1741142;80;20905;-63
2021/09/17 06:48:38;;;;;;;4.00;3.30;;;;;;;16.64;92.55;98932.91;1739034;80;22057;-62
2021/09/17 06:51:05;;;;;;;4.40;3.12;;;;;;;16.60;92.71;98931.48;1742918;80;21083;-62
2021/09/17 06:53:32;;;;;;;5.45;3.72;;;;;;;16.58;92.57;98930.80;1740387;80;20975;-63
2021/09/17 06:55:59;;;;;;;3.08;2.77;;;;;;;16.56;92.67;98935.35;1738767;80;20952;-63
2021/09/17 06:58:31;;;;;;;4.45;3.47;;;;;;;16.56;92.56;98932.72;1739065;80;20920;-62
2021/09/17 07:00:58;;;;;;;7.20;3.37;;;;;;;16.54;92.55;98934.64;1722797;81;20922;-62
2021/09/17 07:03:25;;;;;;;8.35;3.83;;;;;;;16.51;92.43;98934.90;1742461;80;21117;-63
2021/09/17 07:05:52;;;;;;;8.40;3.50;;;;;;;16.51;92.64;98934.90;1740689;80;21432;-62
2021/09/17 07:08:19;;;;;;;8.68;3.47;;;;;;;16.54;92.60;98934.64;1742444;80;20872;-62
2021/09/17 07:10:47;;;;;;;;;;;;;;;16.54;92.56;98935.95;1747099;80;20902;-63
2021/09/17 07:13:13;;;;;;;;;;;;;;;16.57;92.51;98929.11;1744276;80;20155;-64
2021/09/17 07:15:40;;;;;;;5.33;3.30;;;;;;;16.59;92.43;98929.82;1734572;80;21914;-63
2021/09/17 07:18:07;;;;;;;4.83;2.83;;;;;;;16.54;92.22;98930.69;1739425;81;20919;-64
2021/09/17 07:20:34;;;;;;;;;;;;;;;16.48;92.17;98929.89;1742299;81;20938;-64
2021/09/17 07:23:03;;;;;;;;;;;;;;;16.43;92.11;98937.34;1741190;80;20470;-64
2021/09/17 07:25:33;;;;;;;5.53;3.25;;;;;;;16.36;91.97;98938.84;1740206;80;20132;-63
2021/09/17 07:27:59;;;;;;;5.70;3.00;;;;;;;16.33;92.31;98935.48;1736319;80;21004;-63
2021/09/17 07:30:26;;;;;;;3.27;2.83;;;;;;;16.39;92.48;98941.21;1741543;80;20888;-64
2021/09/17 07:32:53;;;;;;;6.83;2.65;;;;;;;16.40;92.28;98942.88;1736940;80;20974;-64
2021/09/17 07:35:21;;;;;;;3.08;2.37;;;;;;;16.43;92.25;98941.30;1735224;80;20919;-64
2021/09/17 07:37:49;;;;;;;3.25;2.75;;;;;;;16.46;92.19;98946.30;1738972;80;39137;-63
2021/09/17 07:40:17;;;;;;;3.95;2.90;;;;;;;16.50;92.11;98946.42;1747569;80;21712;-64
2021/09/17 07:42:47;;;;;;;3.75;3.22;;;;;;;16.56;92.14;98951.16;1729632;82;22047;-63
2021/09/17 07:45:16;;;;;;;3.62;2.52;;;;;;;16.67;92.34;98948.45;1723954;80;20937;-64
2021/09/17 07:47:44;;;;;;;4.40;3.70;;;;;;;16.82;92.36;98950.78;1736226;82;20964;-64
2021/09/17 07:50:13;;;;;;;3.02;2.40;;;;;;;16.90;91.93;98945.69;1736400;80;20926;-64
2021/09/17 07:52:40;;;;;;;3.77;3.45;;;;;;;16.98;91.90;98948.51;1697196;82;21052;-64
2021/09/17 07:55:08;;;;;;;;;;;;;;;17.04;91.69;98953.25;1696288;82;20876;-64
2021/09/17 07:57:35;;;;;;;2.70;2.50;;;;;;;17.02;91.21;98950.39;1742921;80;20429;-64
2021/09/17 08:00:06;;;;;;;2.27;1.95;;;;;;;17.01;91.31;98948.23;1734323;80;20969;-64
2021/09/17 08:02:33;;;;;;;3.30;2.75;;;;;;;17.02;91.47;98957.81;1697750;82;21491;-64
2021/09/17 08:04:59;;;;;;;3.47;2.72;;;;;;;17.01;91.31;98953.52;1703696;82;21886;-63
2021/09/17 08:07:26;;;;;;;5.25;2.17;;;;;;;17.03;91.51;98959.50;1674673;83;20951;-63
2021/09/17 08:09:53;;;;;;;2.77;2.27;;;;;;;17.05;91.30;98962.81;1686654;83;21576;-64
2021/09/17 08:12:19;;;;;;;4.08;2.27;;;;;;;17.09;91.38;98960.28;1728536;80;20933;-64
2021/09/17 08:14:46;;;;;;;2.30;2.05;;;;;;;17.15;91.51;98957.60;1740913;80;22041;-64
2021/09/17 08:17:13;;;;;;;2.75;2.15;;;;;;;17.21;91.33;98959.21;1737640;80;21530;-64
2021/09/17 08:19:39;;;;;;;3.10;2.80;;;;;;;17.23;91.33;98956.45;1734914;80;21473;-64
2021/09/17 08:22:06;;;;;;;3.35;1.92;;;;;;;17.31;91.33;98959.72;1731965;81;21479;-64
2021/09/17 08:24:33;;;;;;;3.10;2.80;;;;;;;17.35;91.28;98958.50;1696972;82;20922;-64
2021/09/17 08:27:00;;;;;;;3.62;2.30;;;;;;;17.38;91.37;98958.23;1739611;80;21489;-64
2021/09/17 08:29:29;;;;;;;;;;;;;;;17.40;90.88;98958.94;1730025;80;20983;-63
2021/09/17 08:31:56;;;;;;;2.20;2.00;;;;;;;17.46;91.12;98958.39;1733596;80;20476;-64
2021/09/17 08:34:23;;;;;;;1.77;1.67;;;;;;;17.51;91.45;98958.00;1735995;80;20889;-64
2021/09/17 08:36:50;;;;;;;2.15;1.80;;;;;;;17.55;90.71;98957.58;1744727;81;21438;-64
2021/09/17 08:39:17;;;;;;;4.03;1.72;;;;;;;17.53;90.83;98948.98;1735630;80;20979;-64
2021/09/17 08:41:46;;;;;;;1.87;1.72;;;;;;;17.64;90.95;98956.78;1741044;80;21879;-64
2021/09/17 08:44:14;;;;;;;2.22;1.70;;;;;;;17.78;90.95;98952.06;1749860;80;20891;-64
2021/09/17 08:46:42;;;;;;;1.70;1.60;;;;;;;17.92;90.61;98949.05;1751508;80;20891;-63
2021/09/17 08:49:11;;;;;;;3.15;2.50;;;;;;;18.02;90.44;98960.45;1749018;80;20934;-63
2021/09/17 08:51:39;;;;;;;1.72;1.62;;;;;;;18.14;90.51;98957.67;1746230;80;20977;-63
2021/09/17 08:54:06;;;;;;;3.55;3.02;;;;;;;18.21;90.14;98958.80;1749692;80;21829;-64
2021/09/17 08:56:33;;;;;;;1.90;1.45;;;;;;;18.27;90.26;98956.91;1746083;80;21002;-63
2021/09/17 08:59:00;;;;;;;;;;;;;;;18.32;89.77;98956.02;1748876;80;20919;-64
2021/09/17 09:01:30;;;;;;;1.00;1.00;;;;;;;18.33;89.73;98960.31;1749698;80;20122;-63
2021/09/17 09:04:03;;;;;;;1.20;1.10;;;;;;;18.36;89.59;98963.16;1745853;80;20933;-64
2021/09/17 09:06:45;;;;;;;1.82;1.50;;;;;;;18.33;89.20;98960.31;1744900;80;21025;-64
2021/09/17 09:09:18;;;;;;;1.55;1.45;;;;;;;18.31;89.18;98960.93;1749581;80;21427;-63
2021/09/17 09:11:50;;;;;;;1.10;1.00;;;;;;;18.19;88.81;98968.67;1747349;80;20932;-64
2021/09/17 09:14:17;;;;;;;0.60;0.60;;;;;;;18.12;89.30;98968.41;1750268;80;20970;-63
2021/09/17 09:16:50;;;;;;;0.62;0.57;;;;;;;18.08;88.88;98962.54;1750753;80;20932;-64
2021/09/17 09:19:21;;;;;;;0.70;0.70;;;;;;;18.04;89.05;98963.80;1748478;80;21034;-63
2021/09/17 09:21:52;;;;;;;3.90;0.70;;;;;;;17.99;88.78;98960.73;1745080;80;20927;-63
2021/09/17 09:24:23;;;;;;;1.00;0.80;;;;;;;17.90;88.56;98961.57;1745858;80;20927;-63
2021/09/17 09:27:14;;;;;;;2.67;0.68;;;;;;;17.84;88.76;98960.31;1745220;81;20888;-63
2021/09/17 09:29:46;;;;;;;0.70;0.60;;;;;;;17.81;88.97;98957.09;1750483;80;21506;-63
2021/09/17 09:32:31;;;;;;;0.60;0.60;;;;;;;17.82;89.13;98962.74;1748296;80;21136;-62
2021/09/17 09:35:02;;;;;;;0.82;0.55;;;;;;;17.78;88.76;98958.20;1744470;80;20945;-60
2021/09/17 09:37:32;;;;;;;3.70;0.60;;;;;;;17.69;88.65;98956.36;1743172;81;20958;-60
2021/09/17 09:40:07;;;;;;;1.17;0.50;;;;;;;17.57;88.43;98964.05;1747053;80;21904;-60
2021/09/17 09:42:40;;;;;;;1.00;0.68;;;;;;;17.48;88.54;98967.02;1729078;80;20943;-60
2021/09/17 09:45:13;;;;;;;1.92;0.30;;;;;;;17.41;88.59;98971.16;1722678;82;21266;-59
2021/09/17 09:47:43;;;;;;;1.17;0.42;;;;;;;17.30;88.33;98971.25;1715266;82;20922;-60
2021/09/17 09:50:15;;;;;;;2.20;0.50;;;;;;;17.18;88.21;98970.52;1672934;84;20951;-59
2021/09/17 09:52:42;;;;;;;0.80;0.50;;;;;;;17.11;88.52;98967.59;1719680;81;20902;-59
2021/09/17 09:55:10;;;;;;;0.53;0.50;;;;;;;17.08;88.54;98969.63;1720954;81;20953;-59
2021/09/17 09:57:37;;;;;;;1.17;0.60;;;;;;;17.14;88.82;98971.73;1710514;82;21043;-59
2021/09/17 10:00:09;;;;;;;1.20;0.55;;;;;;;17.17;88.74;98971.50;1720696;82;20953;-60
2021/09/17 10:02:37;;;;;;;2.47;1.27;;;;;;;17.17;88.73;98969.69;1714740;82;21045;-60
2021/09/17 10:05:07;;;;;;;1.45;1.10;;;;;;;17.14;88.50;98967.32;1723713;81;20902;-60
2021/09/17 10:07:35;;;;;;;0.95;0.60;;;;;;;17.15;88.53;98962.39;1715504;82;20910;-59
2021/09/17 10:10:06;;;;;;;0.70;0.47;;;;;;;17.13;88.50;98968.27;1713603;82;21014;-60
2021/09/17 10:12:33;;;;;;;0.30;0.20;;;;;;;17.16;88.34;98969.81;1676229;83;20939;-60
2021/09/17 10:15:00;;;;;;;0.65;0.60;;;;;;;17.21;88.44;98961.02;1674791;84;21220;-59
2021/09/17 10:17:29;;;;;;;;;;;;;;;17.29;88.57;98964.31;1717292;82;20870;-58
2021/09/17 10:19:59;;;;;;;1.80;0.50;;;;;;;17.37;88.43;98962.67;1713166;81;20099;-58
2021/09/17 10:22:33;;;;;;;0.70;0.70;;;;;;;17.40;88.25;98958.94;1716444;81;21134;-59
2021/09/17 10:25:19;;;;;;;0.55;0.50;;;;;;;17.35;87.79;98963.78;1714418;82;20958;-59
2021/09/17 10:28:14;;;;;;;2.85;0.40;;;;;;;17.41;87.84;98959.28;1711698;82;20911;-58
2021/09/17 10:30:41;;;;;;;0.65;0.35;;;;;;;17.54;87.57;98966.47;1719869;82;20946;-59
2021/09/17 10:33:29;;;;;;;0.40;0.30;;;;;;;17.82;88.23;98958.78;1715850;82;21500;-58
2021/09/17 10:35:56;;;;;;;2.17;0.45;;;;;;;17.96;87.31;98962.34;1698069;82;21957;-59
2021/09/17 10:38:28;;;;;;;0.53;0.37;;;;;;;18.02;86.97;98960.45;1722755;82;20899;-59
2021/09/17 10:41:02;;;;;;;0.88;0.60;;;;;;;18.13;86.87;98960.81;1686404;82;21384;-59
2021/09/17 10:43:49;;;;;;;1.45;0.65;;;;;;;18.31;87.00;98958.29;1694452;82;21037;-58
2021/09/17 10:46:28;;;;;;;0.82;0.60;;;;;;;18.45;87.18;98953.89;1688273;83;20919;-59
2021/09/17 10:48:57;;;;;;;0.70;0.40;;;;;;;18.49;86.75;98951.33;1691895;82;22094;-59
2021/09/17 10:51:39;;;;;;;0.70;0.65;;;;;;;18.52;86.74;98949.72;1695899;82;21439;-59
2021/09/17 10:54:19;;;;;;;1.15;0.53;;;;;;;18.62;86.88;98949.69;1698910;82;20957;-59
2021/09/17 10:56:52;;;;;;;;;;;;;;;18.80;87.16;98949.83;1699141;82;20969;-59
2021/09/17 10:59:24;;;;;;;0.93;0.70;;;;;;;18.98;86.98;98952.55;1693855;82;20111;-59
2021/09/17 11:02:03;;;;;;;0.90;0.50;;;;;;;19.08;86.57;98956.00;1699045;82;21037;-59
2021/09/17 11:04:33;;;;;;;3.60;2.77;;;;;;;19.13;86.57;98950.25;1692875;82;20915;-59
2021/09/17 11:07:32;;;;;;;3.20;2.30;;;;;;;19.16;86.04;98942.05;1693737;82;20888;-59
2021/09/17 11:09:57;;;;;;;2.58;1.35;;;;;;;19.21;86.30;98946.38;1694643;82;20899;-59
2021/09/17 11:12:30;;;;;;;1.05;0.70;;;;;;;19.45;86.31;98945.36;1690870;83;20972;-59
2021/09/17 11:15:16;;;;;;;1.65;0.90;;;;;;;19.80;86.55;98945.12;1688923;83;21499;-59
2021/09/17 11:17:56;;;;;;;1.30;1.10;;;;;;;20.14;86.11;98948.42;1686123;83;20940;-59
2021/09/17 11:20:29;;;;;;;0.75;0.62;;;;;;;20.29;85.28;98940.25;1692365;82;20876;-59
2021/09/17 11:23:01;;;;;;;0.80;0.70;;;;;;;20.35;84.58;98938.30;1694711;82;20908;-59
2021/09/17 11:25:43;;;;;;;4.37;0.78;;;;;;;20.44;85.04;98941.02;1686625;82;20951;-59
2021/09/17 11:28:28;;;;;;;0.98;0.50;;;;;;;20.26;83.33;98939.23;1690735;82;21035;-59
2021/09/17 11:31:14;;;;;;;0.65;0.50;;;;;;;20.06;84.29;98937.25;1659599;83;21007;-59
2021/09/17 11:33:42;;;;;;;0.93;0.53;;;;;;;20.00;84.46;98938.36;1596046;87;20971;-59
2021/09/17 11:36:09;;;;;;;0.40;0.30;;;;;;;19.61;81.48;98934.63;1594429;88;20955;-59
2021/09/17 11:38:37;;;;;;;0.65;0.60;;;;;;;19.08;82.43;98944.09;1597841;86;21016;-59
2021/09/17 11:41:04;;;;;;;1.05;0.70;;;;;;;18.88;83.30;98941.19;1594575;86;21049;-59
2021/09/17 11:43:44;;;;;;;0.60;0.40;;;;;;;18.73;82.98;98944.23;1639080;84;20874;-59
2021/09/17 11:46:11;;;;;;;0.62;0.40;;;;;;;18.64;83.70;98946.91;1627634;86;20956;-59